EZY236G LROP-EGKK
Flight info
| Callsign | EZY236G |
|---|---|
| Flight time | 2h 57m |
| Altitude | 36000 |
| Route | SOKRU DCT OXDOC DCT OLMIP DCT GYR DCT BEGLA DCT ADLET DCT DEXIT DCT INBED DCT BOMBI DCT ADKUV DCT SOGRI DCT DENUT L610 TEBRA |
| Aircraft | A320/M-SDE3FGHIRWY/LB1 |
Departure
| Time | 2026-05-05 14:51 |
|---|---|
| Airport | Bucharest Henri Coandă International Airport (LROP) |
Arrival
| Time | 2026-05-05 17:48 |
|---|---|
| Airport | London Gatwick Airport (EGKK) |
| Time | Latitude | Longitude | Altitude | Speed | Heading |
|---|---|---|---|---|---|
| 2026-05-05 14:10 | 44.57014 | 26.08080 | 321 ft | 0 kts | 354° |
| 2026-05-05 14:35 | 44.57012 | 26.08080 | 322 ft | 1 kts | 354° |
| 2026-05-05 14:35 | 44.56996 | 26.08082 | 320 ft | 3 kts | 354° |
| 2026-05-05 14:35 | 44.56976 | 26.08085 | 321 ft | 2 kts | 354° |
| 2026-05-05 14:36 | 44.56959 | 26.08087 | 319 ft | 3 kts | 12° |
| 2026-05-05 14:36 | 44.56942 | 26.08077 | 322 ft | 3 kts | 48° |
| 2026-05-05 14:36 | 44.56932 | 26.08054 | 322 ft | 3 kts | 74° |
| 2026-05-05 14:36 | 44.56929 | 26.08034 | 322 ft | 1 kts | 84° |
| 2026-05-05 14:37 | 44.56928 | 26.08028 | 322 ft | 0 kts | 84° |
| 2026-05-05 14:42 | 44.56930 | 26.08049 | 322 ft | 7 kts | 83° |
| 2026-05-05 14:42 | 44.56937 | 26.08140 | 322 ft | 9 kts | 84° |
| 2026-05-05 14:43 | 44.56945 | 26.08241 | 322 ft | 14 kts | 83° |
| 2026-05-05 14:43 | 44.56962 | 26.08366 | 322 ft | 11 kts | 50° |
| 2026-05-05 14:43 | 44.57026 | 26.08386 | 322 ft | 9 kts | 356° |
| 2026-05-05 14:43 | 44.57083 | 26.08378 | 321 ft | 10 kts | 353° |
| 2026-05-05 14:44 | 44.57183 | 26.08364 | 321 ft | 14 kts | 354° |
| 2026-05-05 14:44 | 44.57229 | 26.08440 | 322 ft | 11 kts | 81° |
| 2026-05-05 14:44 | 44.57278 | 26.08496 | 322 ft | 11 kts | 1° |
| 2026-05-05 14:44 | 44.57358 | 26.08486 | 321 ft | 11 kts | 354° |
| 2026-05-05 14:45 | 44.57441 | 26.08474 | 322 ft | 17 kts | 358° |
| 2026-05-05 14:45 | 44.57501 | 26.08594 | 322 ft | 16 kts | 84° |
| 2026-05-05 14:45 | 44.57515 | 26.08791 | 322 ft | 26 kts | 84° |
| 2026-05-05 14:45 | 44.57536 | 26.09062 | 322 ft | 29 kts | 84° |
| 2026-05-05 14:46 | 44.57557 | 26.09343 | 322 ft | 29 kts | 83° |
| 2026-05-05 14:46 | 44.57579 | 26.09631 | 322 ft | 30 kts | 83° |
| 2026-05-05 14:46 | 44.57601 | 26.09923 | 322 ft | 30 kts | 84° |
| 2026-05-05 14:46 | 44.57623 | 26.10217 | 322 ft | 31 kts | 85° |
| 2026-05-05 14:47 | 44.57645 | 26.10518 | 322 ft | 31 kts | 84° |
| 2026-05-05 14:47 | 44.57669 | 26.10823 | 322 ft | 32 kts | 84° |
| 2026-05-05 14:47 | 44.57691 | 26.11131 | 322 ft | 32 kts | 84° |
| 2026-05-05 14:47 | 44.57716 | 26.11442 | 322 ft | 32 kts | 83° |
| 2026-05-05 14:48 | 44.57740 | 26.11754 | 322 ft | 32 kts | 84° |
| 2026-05-05 14:48 | 44.57763 | 26.12069 | 322 ft | 33 kts | 84° |
| 2026-05-05 14:48 | 44.57786 | 26.12386 | 321 ft | 33 kts | 84° |
| 2026-05-05 14:48 | 44.57808 | 26.12686 | 322 ft | 23 kts | 80° |
| 2026-05-05 14:49 | 44.57823 | 26.12830 | 322 ft | 8 kts | 71° |
| 2026-05-05 14:49 | 44.57859 | 26.12867 | 322 ft | 6 kts | 9° |
| 2026-05-05 14:49 | 44.57871 | 26.12864 | 322 ft | 0 kts | 346° |
| 2026-05-05 14:50 | 44.57871 | 26.12863 | 322 ft | 1 kts | 339° |
| 2026-05-05 14:50 | 44.57929 | 26.12811 | 322 ft | 18 kts | 323° |
| 2026-05-05 14:50 | 44.57979 | 26.12657 | 322 ft | 18 kts | 269° |
| 2026-05-05 14:50 | 44.57963 | 26.12444 | 323 ft | 39 kts | 263° |
| 2026-05-05 14:51 | 44.57909 | 26.11732 | 324 ft | 105 kts | 264° |
| 2026-05-05 14:51 | 44.57808 | 26.10459 | 322 ft | 156 kts | 264° |
| 2026-05-05 14:51 | 44.57689 | 26.08802 | 599 ft | 176 kts | 264° |
| 2026-05-05 14:51 | 44.57539 | 26.07117 | 1331 ft | 173 kts | 263° |
| 2026-05-05 14:52 | 44.57383 | 26.05411 | 1802 ft | 184 kts | 262° |
| 2026-05-05 14:52 | 44.57275 | 26.03513 | 2023 ft | 207 kts | 273° |
| 2026-05-05 14:52 | 44.57814 | 26.01545 | 2232 ft | 232 kts | 308° |
| 2026-05-05 14:52 | 44.58925 | 25.99735 | 2586 ft | 255 kts | 308° |
| 2026-05-05 14:53 | 44.60047 | 25.97743 | 3256 ft | 264 kts | 307° |
| 2026-05-05 14:53 | 44.61165 | 25.95679 | 4087 ft | 266 kts | 307° |
| 2026-05-05 14:53 | 44.62280 | 25.93602 | 4967 ft | 267 kts | 308° |
| 2026-05-05 14:53 | 44.63402 | 25.91515 | 5797 ft | 269 kts | 309° |
| 2026-05-05 14:54 | 44.64539 | 25.89414 | 6595 ft | 271 kts | 309° |
| 2026-05-05 14:54 | 44.65693 | 25.87298 | 7354 ft | 274 kts | 310° |
| 2026-05-05 14:54 | 44.66847 | 25.85192 | 8127 ft | 276 kts | 310° |
| 2026-05-05 14:54 | 44.68025 | 25.83052 | 8914 ft | 278 kts | 310° |
| 2026-05-05 14:55 | 44.69211 | 25.80897 | 9699 ft | 280 kts | 311° |
| 2026-05-05 14:55 | 44.70411 | 25.78716 | 10274 ft | 289 kts | 310° |
| 2026-05-05 14:55 | 44.71687 | 25.76395 | 10447 ft | 312 kts | 309° |
| 2026-05-05 14:55 | 44.72926 | 25.73774 | 10758 ft | 329 kts | 304° |
| 2026-05-05 14:56 | 44.74125 | 25.70996 | 11348 ft | 335 kts | 303° |
| 2026-05-05 14:56 | 44.75305 | 25.68148 | 11995 ft | 339 kts | 303° |
| 2026-05-05 14:56 | 44.76488 | 25.65252 | 12658 ft | 343 kts | 303° |
| 2026-05-05 14:56 | 44.77683 | 25.62331 | 13324 ft | 346 kts | 303° |
| 2026-05-05 14:57 | 44.78897 | 25.59386 | 13933 ft | 350 kts | 303° |
| 2026-05-05 14:57 | 44.80134 | 25.56411 | 14483 ft | 353 kts | 303° |
| 2026-05-05 14:57 | 44.81385 | 25.53410 | 15062 ft | 357 kts | 303° |
| 2026-05-05 14:57 | 44.82645 | 25.50390 | 15619 ft | 360 kts | 303° |
| 2026-05-05 14:58 | 44.83921 | 25.47333 | 16169 ft | 363 kts | 303° |
| 2026-05-05 14:58 | 44.85208 | 25.44245 | 16722 ft | 367 kts | 303° |
| 2026-05-05 14:58 | 44.86502 | 25.41132 | 17268 ft | 370 kts | 303° |
| 2026-05-05 14:58 | 44.87809 | 25.37985 | 17822 ft | 373 kts | 303° |
| 2026-05-05 14:59 | 44.89125 | 25.34809 | 18357 ft | 376 kts | 303° |
| 2026-05-05 14:59 | 44.90452 | 25.31605 | 18829 ft | 379 kts | 303° |
| 2026-05-05 14:59 | 44.91786 | 25.28380 | 19314 ft | 382 kts | 303° |
| 2026-05-05 14:59 | 44.93110 | 25.25176 | 19809 ft | 384 kts | 303° |
| 2026-05-05 15:00 | 44.94458 | 25.21907 | 20291 ft | 387 kts | 303° |
| 2026-05-05 15:00 | 44.95377 | 25.19675 | 20596 ft | 389 kts | 303° |
| 2026-05-05 15:00 | 44.97187 | 25.15267 | 21219 ft | 393 kts | 303° |
| 2026-05-05 15:00 | 44.98561 | 25.11917 | 21717 ft | 396 kts | 302° |
| 2026-05-05 15:01 | 44.99944 | 25.08541 | 22195 ft | 398 kts | 302° |
| 2026-05-05 15:01 | 45.01338 | 25.05135 | 22668 ft | 401 kts | 302° |
| 2026-05-05 15:01 | 45.02738 | 25.01715 | 23137 ft | 403 kts | 302° |
| 2026-05-05 15:01 | 45.04147 | 24.98273 | 23578 ft | 405 kts | 302° |
| 2026-05-05 15:02 | 45.05561 | 24.94811 | 23942 ft | 407 kts | 302° |
| 2026-05-05 15:02 | 45.06982 | 24.91331 | 24328 ft | 409 kts | 302° |
| 2026-05-05 15:02 | 45.08403 | 24.87844 | 24696 ft | 410 kts | 302° |
| 2026-05-05 15:02 | 45.09829 | 24.84337 | 25066 ft | 411 kts | 302° |
| 2026-05-05 15:03 | 45.11255 | 24.80827 | 25429 ft | 412 kts | 302° |
| 2026-05-05 15:03 | 45.12688 | 24.77295 | 25784 ft | 414 kts | 302° |
| 2026-05-05 15:03 | 45.14121 | 24.73757 | 26123 ft | 415 kts | 302° |
| 2026-05-05 15:03 | 45.15559 | 24.70195 | 26463 ft | 417 kts | 302° |
| 2026-05-05 15:04 | 45.16998 | 24.66627 | 26805 ft | 418 kts | 302° |
| 2026-05-05 15:04 | 45.18444 | 24.63040 | 27137 ft | 419 kts | 302° |
| 2026-05-05 15:04 | 45.19891 | 24.59447 | 27436 ft | 421 kts | 302° |
| 2026-05-05 15:04 | 45.21326 | 24.55884 | 27782 ft | 421 kts | 302° |
| 2026-05-05 15:05 | 45.24244 | 24.48632 | 28406 ft | 424 kts | 302° |
| 2026-05-05 15:05 | 45.25706 | 24.44992 | 28704 ft | 425 kts | 302° |
| 2026-05-05 15:05 | 45.27168 | 24.41339 | 29004 ft | 427 kts | 302° |
| 2026-05-05 15:06 | 45.28634 | 24.37669 | 29282 ft | 428 kts | 302° |
| 2026-05-05 15:06 | 45.30109 | 24.33982 | 29530 ft | 429 kts | 302° |
| 2026-05-05 15:06 | 45.31586 | 24.30290 | 29749 ft | 430 kts | 302° |
| 2026-05-05 15:06 | 45.33068 | 24.26581 | 29994 ft | 432 kts | 302° |
| 2026-05-05 15:07 | 45.34552 | 24.22860 | 30210 ft | 434 kts | 302° |
| 2026-05-05 15:07 | 45.36041 | 24.19117 | 30413 ft | 435 kts | 302° |
| 2026-05-05 15:07 | 45.37528 | 24.15367 | 30622 ft | 436 kts | 302° |
| 2026-05-05 15:07 | 45.39016 | 24.11610 | 30907 ft | 435 kts | 302° |
| 2026-05-05 15:08 | 45.40496 | 24.07867 | 31195 ft | 434 kts | 301° |
| 2026-05-05 15:08 | 45.41976 | 24.04118 | 31436 ft | 434 kts | 301° |
| 2026-05-05 15:08 | 45.43454 | 24.00369 | 31684 ft | 434 kts | 301° |
| 2026-05-05 15:08 | 45.44928 | 23.96624 | 31936 ft | 433 kts | 301° |
| 2026-05-05 15:09 | 45.46379 | 23.92928 | 32171 ft | 433 kts | 301° |
| 2026-05-05 15:09 | 45.47853 | 23.89174 | 32409 ft | 433 kts | 301° |
| 2026-05-05 15:09 | 45.49322 | 23.85434 | 32693 ft | 432 kts | 301° |
| 2026-05-05 15:09 | 45.50788 | 23.81704 | 32961 ft | 431 kts | 301° |
| 2026-05-05 15:10 | 45.52251 | 23.77976 | 33201 ft | 430 kts | 301° |
| 2026-05-05 15:10 | 45.53712 | 23.74252 | 33469 ft | 430 kts | 301° |
| 2026-05-05 15:10 | 45.55167 | 23.70530 | 33732 ft | 429 kts | 301° |
| 2026-05-05 15:10 | 45.56617 | 23.66812 | 33994 ft | 428 kts | 301° |
| 2026-05-05 15:11 | 45.57574 | 23.64351 | 34146 ft | 428 kts | 301° |
| 2026-05-05 15:11 | 45.59038 | 23.60590 | 34379 ft | 427 kts | 301° |
| 2026-05-05 15:11 | 45.60459 | 23.56932 | 34595 ft | 427 kts | 301° |
| 2026-05-05 15:11 | 45.61899 | 23.53223 | 34770 ft | 427 kts | 301° |
| 2026-05-05 15:12 | 45.63340 | 23.49506 | 34966 ft | 426 kts | 301° |
| 2026-05-05 15:12 | 45.64774 | 23.45797 | 35150 ft | 426 kts | 301° |
| 2026-05-05 15:12 | 45.66203 | 23.42089 | 35345 ft | 426 kts | 301° |
| 2026-05-05 15:12 | 45.67629 | 23.38389 | 35528 ft | 425 kts | 301° |
| 2026-05-05 15:13 | 45.69058 | 23.34681 | 35713 ft | 425 kts | 301° |
| 2026-05-05 15:13 | 45.70481 | 23.30983 | 35877 ft | 424 kts | 301° |
| 2026-05-05 15:13 | 45.71903 | 23.27281 | 35963 ft | 424 kts | 300° |
| 2026-05-05 15:14 | 45.74731 | 23.19906 | 35967 ft | 422 kts | 300° |
| 2026-05-05 15:14 | 45.77555 | 23.12529 | 35970 ft | 422 kts | 300° |
| 2026-05-05 15:15 | 45.80353 | 23.05200 | 35963 ft | 422 kts | 300° |
| 2026-05-05 15:15 | 45.83179 | 22.97777 | 35965 ft | 421 kts | 300° |
| 2026-05-05 15:16 | 45.85963 | 22.90446 | 35970 ft | 421 kts | 300° |
| 2026-05-05 15:16 | 45.88757 | 22.83056 | 35971 ft | 421 kts | 300° |
| 2026-05-05 15:17 | 45.91555 | 22.75649 | 35980 ft | 422 kts | 300° |
| 2026-05-05 15:17 | 45.94346 | 22.68237 | 35964 ft | 422 kts | 300° |
| 2026-05-05 15:18 | 45.97134 | 22.60812 | 35970 ft | 422 kts | 299° |
| 2026-05-05 15:18 | 45.99914 | 22.53383 | 35974 ft | 422 kts | 299° |
| 2026-05-05 15:19 | 46.02693 | 22.45939 | 35974 ft | 422 kts | 299° |
| 2026-05-05 15:19 | 46.05465 | 22.38491 | 35971 ft | 422 kts | 299° |
| 2026-05-05 15:20 | 46.08232 | 22.31032 | 35969 ft | 422 kts | 299° |
| 2026-05-05 15:20 | 46.11002 | 22.23569 | 35970 ft | 422 kts | 299° |
| 2026-05-05 15:21 | 46.13760 | 22.16098 | 35969 ft | 422 kts | 298° |
| 2026-05-05 15:21 | 46.16509 | 22.08616 | 35969 ft | 422 kts | 298° |
| 2026-05-05 15:22 | 46.19259 | 22.01120 | 35958 ft | 422 kts | 298° |
| 2026-05-05 15:22 | 46.22004 | 21.93626 | 35963 ft | 422 kts | 298° |
| 2026-05-05 15:23 | 46.24725 | 21.86180 | 35963 ft | 422 kts | 298° |
| 2026-05-05 15:23 | 46.27456 | 21.78674 | 35963 ft | 422 kts | 298° |
| 2026-05-05 15:24 | 46.30188 | 21.71163 | 35959 ft | 422 kts | 298° |
| 2026-05-05 15:24 | 46.32913 | 21.63643 | 35953 ft | 422 kts | 297° |
| 2026-05-05 15:25 | 46.35631 | 21.56114 | 35960 ft | 422 kts | 297° |
| 2026-05-05 15:25 | 46.38350 | 21.48576 | 35964 ft | 422 kts | 297° |
| 2026-05-05 15:26 | 46.41060 | 21.41030 | 35954 ft | 422 kts | 297° |
| 2026-05-05 15:26 | 46.43767 | 21.33465 | 35948 ft | 422 kts | 297° |
| 2026-05-05 15:27 | 46.46467 | 21.25894 | 35947 ft | 422 kts | 297° |
| 2026-05-05 15:27 | 46.49163 | 21.18322 | 35945 ft | 422 kts | 297° |
| 2026-05-05 15:28 | 46.51838 | 21.10790 | 35945 ft | 423 kts | 297° |
| 2026-05-05 15:28 | 46.54527 | 21.03193 | 35943 ft | 422 kts | 297° |
| 2026-05-05 15:29 | 46.57212 | 20.95594 | 35936 ft | 422 kts | 296° |
| 2026-05-05 15:29 | 46.59888 | 20.87988 | 35935 ft | 422 kts | 296° |
| 2026-05-05 15:30 | 46.62562 | 20.80370 | 35935 ft | 423 kts | 296° |
| 2026-05-05 15:30 | 46.65232 | 20.72746 | 35936 ft | 423 kts | 296° |
| 2026-05-05 15:31 | 46.67896 | 20.65113 | 35935 ft | 423 kts | 296° |
| 2026-05-05 15:31 | 46.70554 | 20.57466 | 35933 ft | 423 kts | 296° |
| 2026-05-05 15:32 | 46.73208 | 20.49813 | 35930 ft | 423 kts | 296° |
| 2026-05-05 15:32 | 46.75844 | 20.42211 | 35929 ft | 423 kts | 296° |
| 2026-05-05 15:33 | 46.78489 | 20.34536 | 35924 ft | 423 kts | 296° |
| 2026-05-05 15:33 | 46.81126 | 20.26858 | 35924 ft | 423 kts | 296° |
| 2026-05-05 15:34 | 46.83753 | 20.19179 | 35927 ft | 423 kts | 296° |
| 2026-05-05 15:34 | 46.86381 | 20.11494 | 35932 ft | 423 kts | 296° |
| 2026-05-05 15:35 | 46.89011 | 20.03799 | 35934 ft | 423 kts | 296° |
| 2026-05-05 15:35 | 46.91615 | 19.96145 | 35939 ft | 423 kts | 295° |
| 2026-05-05 15:36 | 46.94223 | 19.88436 | 35940 ft | 423 kts | 295° |
| 2026-05-05 15:36 | 46.96828 | 19.80715 | 35940 ft | 423 kts | 295° |
| 2026-05-05 15:37 | 46.99436 | 19.72977 | 35943 ft | 423 kts | 295° |
| 2026-05-05 15:37 | 47.02039 | 19.65238 | 35926 ft | 424 kts | 295° |
| 2026-05-05 15:38 | 47.04638 | 19.57498 | 35936 ft | 423 kts | 295° |
| 2026-05-05 15:38 | 47.07226 | 19.49754 | 35936 ft | 423 kts | 295° |
| 2026-05-05 15:39 | 47.09797 | 19.42003 | 35933 ft | 422 kts | 295° |
| 2026-05-05 15:39 | 47.12372 | 19.34245 | 35930 ft | 422 kts | 295° |
| 2026-05-05 15:40 | 47.14942 | 19.26488 | 35931 ft | 422 kts | 295° |
| 2026-05-05 15:40 | 47.17511 | 19.18729 | 35933 ft | 422 kts | 295° |
| 2026-05-05 15:41 | 47.20063 | 19.10973 | 35932 ft | 421 kts | 294° |
| 2026-05-05 15:41 | 47.22604 | 19.03206 | 35930 ft | 421 kts | 294° |
| 2026-05-05 15:42 | 47.25130 | 18.95494 | 35929 ft | 421 kts | 294° |
| 2026-05-05 15:42 | 47.27663 | 18.87728 | 35934 ft | 420 kts | 294° |
| 2026-05-05 15:43 | 47.30180 | 18.79964 | 35933 ft | 420 kts | 294° |
| 2026-05-05 15:43 | 47.32691 | 18.72208 | 35931 ft | 419 kts | 294° |
| 2026-05-05 15:44 | 47.35203 | 18.64446 | 35927 ft | 419 kts | 294° |
| 2026-05-05 15:44 | 47.37703 | 18.56677 | 35933 ft | 419 kts | 294° |
| 2026-05-05 15:45 | 47.40197 | 18.48913 | 35935 ft | 418 kts | 294° |
| 2026-05-05 15:45 | 47.42667 | 18.41198 | 35920 ft | 418 kts | 293° |
| 2026-05-05 15:46 | 47.45147 | 18.33430 | 35925 ft | 418 kts | 294° |
| 2026-05-05 15:46 | 47.47624 | 18.25655 | 35922 ft | 417 kts | 293° |
| 2026-05-05 15:47 | 47.50083 | 18.17887 | 35926 ft | 416 kts | 292° |
| 2026-05-05 15:47 | 47.52537 | 18.10123 | 35908 ft | 416 kts | 293° |
| 2026-05-05 15:48 | 47.54969 | 18.02400 | 35907 ft | 416 kts | 293° |
| 2026-05-05 15:48 | 47.57418 | 17.94613 | 35894 ft | 417 kts | 292° |
| 2026-05-05 15:49 | 47.59865 | 17.86829 | 35893 ft | 416 kts | 293° |
| 2026-05-05 15:49 | 47.62298 | 17.79042 | 35899 ft | 416 kts | 292° |
| 2026-05-05 15:50 | 47.64717 | 17.71264 | 35903 ft | 415 kts | 292° |
| 2026-05-05 15:50 | 47.67126 | 17.63468 | 35894 ft | 415 kts | 292° |
| 2026-05-05 15:51 | 47.69539 | 17.55674 | 35882 ft | 415 kts | 292° |
| 2026-05-05 15:51 | 47.71951 | 17.47878 | 35881 ft | 416 kts | 292° |
| 2026-05-05 15:52 | 47.74353 | 17.40073 | 35871 ft | 415 kts | 292° |
| 2026-05-05 15:52 | 47.76749 | 17.32268 | 35870 ft | 414 kts | 292° |
| 2026-05-05 15:53 | 47.79115 | 17.24531 | 35853 ft | 414 kts | 292° |
| 2026-05-05 15:53 | 47.81490 | 17.16738 | 35850 ft | 413 kts | 292° |
| 2026-05-05 15:54 | 47.83838 | 17.08914 | 35830 ft | 414 kts | 290° |
| 2026-05-05 15:54 | 47.86049 | 17.01002 | 35832 ft | 413 kts | 290° |
| 2026-05-05 15:55 | 47.88197 | 16.93054 | 35828 ft | 413 kts | 289° |
| 2026-05-05 15:55 | 47.90357 | 16.85112 | 35818 ft | 413 kts | 290° |
| 2026-05-05 15:56 | 47.92530 | 16.77188 | 35796 ft | 413 kts | 290° |
| 2026-05-05 15:56 | 47.94337 | 16.70601 | 35779 ft | 414 kts | 290° |
| 2026-05-05 15:57 | 47.96507 | 16.62649 | 35781 ft | 413 kts | 289° |
| 2026-05-05 15:57 | 47.99023 | 16.53403 | 35785 ft | 413 kts | 289° |
| 2026-05-05 15:58 | 48.00825 | 16.46740 | 35781 ft | 412 kts | 289° |
| 2026-05-05 15:58 | 48.02959 | 16.38837 | 35778 ft | 412 kts | 289° |
| 2026-05-05 15:59 | 48.05104 | 16.30864 | 35754 ft | 414 kts | 289° |
| 2026-05-05 15:59 | 48.07251 | 16.22858 | 35751 ft | 416 kts | 289° |
| 2026-05-05 16:00 | 48.09396 | 16.14821 | 35744 ft | 416 kts | 289° |
| 2026-05-05 16:00 | 48.11540 | 16.06769 | 35753 ft | 416 kts | 289° |
| 2026-05-05 16:01 | 48.13679 | 15.98698 | 35756 ft | 417 kts | 289° |
| 2026-05-05 16:01 | 48.15815 | 15.90606 | 35731 ft | 419 kts | 289° |
| 2026-05-05 16:02 | 48.17959 | 15.82471 | 35731 ft | 419 kts | 289° |
| 2026-05-05 16:02 | 48.20091 | 15.74328 | 35735 ft | 420 kts | 288° |
| 2026-05-05 16:03 | 48.22220 | 15.66189 | 35734 ft | 420 kts | 289° |
| 2026-05-05 16:03 | 48.24338 | 15.58090 | 35755 ft | 419 kts | 289° |
| 2026-05-05 16:04 | 48.26458 | 15.49937 | 35743 ft | 420 kts | 289° |
| 2026-05-05 16:04 | 48.28571 | 15.41772 | 35734 ft | 419 kts | 289° |
| 2026-05-05 16:05 | 48.30682 | 15.33591 | 35731 ft | 419 kts | 289° |
| 2026-05-05 16:05 | 48.32784 | 15.25411 | 35728 ft | 420 kts | 288° |
| 2026-05-05 16:06 | 48.34874 | 15.17223 | 35736 ft | 420 kts | 289° |
| 2026-05-05 16:06 | 48.36965 | 15.09035 | 35734 ft | 419 kts | 289° |
| 2026-05-05 16:07 | 48.39053 | 15.00831 | 35732 ft | 419 kts | 289° |
| 2026-05-05 16:07 | 48.41120 | 14.92688 | 35730 ft | 419 kts | 288° |
| 2026-05-05 16:08 | 48.43190 | 14.84485 | 35729 ft | 419 kts | 288° |
| 2026-05-05 16:08 | 48.45259 | 14.76257 | 35743 ft | 420 kts | 288° |
| 2026-05-05 16:09 | 48.47320 | 14.68022 | 35739 ft | 420 kts | 288° |
| 2026-05-05 16:09 | 48.49374 | 14.59782 | 35740 ft | 420 kts | 288° |
| 2026-05-05 16:10 | 48.51423 | 14.51542 | 35738 ft | 420 kts | 288° |
| 2026-05-05 16:10 | 48.53468 | 14.43292 | 35745 ft | 420 kts | 288° |
| 2026-05-05 16:11 | 48.55502 | 14.35040 | 35746 ft | 420 kts | 287° |
| 2026-05-05 16:12 | 48.60414 | 14.18992 | 35742 ft | 422 kts | 294° |
| 2026-05-05 16:13 | 48.66983 | 13.99211 | 35756 ft | 422 kts | 293° |
| 2026-05-05 16:13 | 48.69608 | 13.91259 | 35755 ft | 422 kts | 293° |
| 2026-05-05 16:14 | 48.74837 | 13.75314 | 35744 ft | 422 kts | 293° |
| 2026-05-05 16:15 | 48.79169 | 13.58871 | 35748 ft | 420 kts | 287° |
| 2026-05-05 16:16 | 48.83141 | 13.42242 | 35738 ft | 420 kts | 287° |
| 2026-05-05 16:17 | 48.86110 | 13.29699 | 35737 ft | 421 kts | 287° |
| 2026-05-05 16:18 | 48.89065 | 13.17145 | 35747 ft | 421 kts | 286° |
| 2026-05-05 16:19 | 48.92020 | 13.04552 | 35727 ft | 422 kts | 286° |
| 2026-05-05 16:19 | 48.94946 | 12.91985 | 35736 ft | 422 kts | 286° |
| 2026-05-05 16:20 | 48.98836 | 12.75123 | 35741 ft | 422 kts | 286° |
| 2026-05-05 16:22 | 49.03665 | 12.54019 | 35741 ft | 422 kts | 285° |
| 2026-05-05 16:23 | 49.07484 | 12.37222 | 35753 ft | 422 kts | 285° |
| 2026-05-05 16:23 | 49.10340 | 12.24564 | 35746 ft | 422 kts | 285° |
| 2026-05-05 16:24 | 49.12245 | 12.16078 | 35781 ft | 422 kts | 285° |
| 2026-05-05 16:25 | 49.15089 | 12.03343 | 35802 ft | 422 kts | 285° |
| 2026-05-05 16:25 | 49.17923 | 11.90563 | 35814 ft | 423 kts | 285° |
| 2026-05-05 16:26 | 49.21690 | 11.73482 | 35802 ft | 424 kts | 284° |
| 2026-05-05 16:27 | 49.23553 | 11.64972 | 35771 ft | 424 kts | 284° |
| 2026-05-05 16:27 | 49.25420 | 11.56400 | 35784 ft | 425 kts | 284° |
| 2026-05-05 16:28 | 49.27282 | 11.47796 | 35773 ft | 426 kts | 284° |
| 2026-05-05 16:28 | 49.29146 | 11.39176 | 35773 ft | 427 kts | 284° |
| 2026-05-05 16:29 | 49.31009 | 11.30525 | 35777 ft | 427 kts | 284° |
| 2026-05-05 16:29 | 49.32864 | 11.21876 | 35803 ft | 427 kts | 284° |
| 2026-05-05 16:30 | 49.34717 | 11.13204 | 35818 ft | 428 kts | 284° |
| 2026-05-05 16:30 | 49.36566 | 11.04515 | 35814 ft | 429 kts | 284° |
| 2026-05-05 16:31 | 49.38411 | 10.95803 | 35814 ft | 430 kts | 285° |
| 2026-05-05 16:31 | 49.40929 | 10.87469 | 35817 ft | 434 kts | 292° |
| 2026-05-05 16:32 | 49.43635 | 10.79168 | 35826 ft | 435 kts | 292° |
| 2026-05-05 16:32 | 49.46334 | 10.70838 | 35835 ft | 436 kts | 292° |
| 2026-05-05 16:33 | 49.49026 | 10.62481 | 35808 ft | 436 kts | 292° |
| 2026-05-05 16:33 | 49.51711 | 10.54109 | 35814 ft | 436 kts | 292° |
| 2026-05-05 16:34 | 49.54400 | 10.45715 | 35816 ft | 436 kts | 292° |
| 2026-05-05 16:34 | 49.57077 | 10.37331 | 35816 ft | 436 kts | 292° |
| 2026-05-05 16:35 | 49.59755 | 10.28924 | 35816 ft | 437 kts | 292° |
| 2026-05-05 16:35 | 49.62433 | 10.20492 | 35810 ft | 438 kts | 292° |
| 2026-05-05 16:36 | 49.65109 | 10.12038 | 35812 ft | 439 kts | 292° |
| 2026-05-05 16:36 | 49.67766 | 10.03620 | 35812 ft | 439 kts | 292° |
| 2026-05-05 16:37 | 49.70431 | 9.95127 | 35835 ft | 439 kts | 291° |
| 2026-05-05 16:37 | 49.73068 | 9.86691 | 35810 ft | 441 kts | 291° |
| 2026-05-05 16:38 | 49.75724 | 9.78150 | 35812 ft | 441 kts | 291° |
| 2026-05-05 16:38 | 49.78383 | 9.69575 | 35811 ft | 442 kts | 291° |
| 2026-05-05 16:39 | 49.81046 | 9.61000 | 35816 ft | 442 kts | 291° |
| 2026-05-05 16:39 | 49.83702 | 9.52416 | 35835 ft | 442 kts | 291° |
| 2026-05-05 16:40 | 49.86352 | 9.43812 | 35828 ft | 442 kts | 291° |
| 2026-05-05 16:40 | 49.88988 | 9.35212 | 35826 ft | 442 kts | 291° |
| 2026-05-05 16:41 | 49.91617 | 9.26589 | 35824 ft | 442 kts | 291° |
| 2026-05-05 16:41 | 49.94228 | 9.18002 | 35823 ft | 443 kts | 291° |
| 2026-05-05 16:42 | 49.96845 | 9.09359 | 35840 ft | 443 kts | 291° |
| 2026-05-05 16:42 | 49.99043 | 9.02087 | 35823 ft | 444 kts | 291° |
| 2026-05-05 16:43 | 50.02094 | 8.91976 | 35817 ft | 445 kts | 291° |
| 2026-05-05 16:43 | 50.04283 | 8.84660 | 35819 ft | 445 kts | 291° |
| 2026-05-05 16:44 | 50.06795 | 8.75853 | 35822 ft | 444 kts | 288° |
| 2026-05-05 16:44 | 50.08938 | 8.66837 | 35823 ft | 443 kts | 285° |
| 2026-05-05 16:45 | 50.10948 | 8.57825 | 35828 ft | 443 kts | 285° |
| 2026-05-05 16:45 | 50.13019 | 8.48771 | 35833 ft | 443 kts | 286° |
| 2026-05-05 16:46 | 50.15135 | 8.39752 | 35859 ft | 443 kts | 286° |
| 2026-05-05 16:46 | 50.17259 | 8.30726 | 35854 ft | 443 kts | 286° |
| 2026-05-05 16:47 | 50.19364 | 8.21695 | 35866 ft | 443 kts | 286° |
| 2026-05-05 16:47 | 50.21456 | 8.12649 | 35853 ft | 443 kts | 286° |
| 2026-05-05 16:48 | 50.23537 | 8.03591 | 35841 ft | 443 kts | 286° |
| 2026-05-05 16:48 | 50.25597 | 7.94583 | 35832 ft | 443 kts | 285° |
| 2026-05-05 16:49 | 50.27667 | 7.85493 | 35827 ft | 443 kts | 285° |
| 2026-05-05 16:49 | 50.29726 | 7.76395 | 35832 ft | 444 kts | 286° |
| 2026-05-05 16:50 | 50.31785 | 7.67298 | 35827 ft | 444 kts | 285° |
| 2026-05-05 16:50 | 50.33828 | 7.58223 | 35815 ft | 444 kts | 285° |
| 2026-05-05 16:51 | 50.35874 | 7.49090 | 35818 ft | 445 kts | 285° |
| 2026-05-05 16:51 | 50.37916 | 7.39933 | 35835 ft | 445 kts | 285° |
| 2026-05-05 16:52 | 50.39953 | 7.30777 | 35832 ft | 446 kts | 285° |
| 2026-05-05 16:52 | 50.41963 | 7.21689 | 35834 ft | 446 kts | 285° |
| 2026-05-05 16:53 | 50.43994 | 7.12492 | 35837 ft | 446 kts | 285° |
| 2026-05-05 16:53 | 50.46004 | 7.03355 | 35835 ft | 445 kts | 285° |
| 2026-05-05 16:54 | 50.48014 | 6.94154 | 35855 ft | 445 kts | 285° |
| 2026-05-05 16:54 | 50.50005 | 6.84941 | 35847 ft | 446 kts | 285° |
| 2026-05-05 16:55 | 50.51888 | 6.75672 | 35847 ft | 445 kts | 282° |
| 2026-05-05 16:55 | 50.53514 | 6.66300 | 35841 ft | 444 kts | 281° |
| 2026-05-05 16:56 | 50.55087 | 6.56905 | 35831 ft | 444 kts | 281° |
| 2026-05-05 16:56 | 50.56706 | 6.47515 | 35849 ft | 445 kts | 282° |
| 2026-05-05 16:57 | 50.58348 | 6.38122 | 35841 ft | 445 kts | 282° |
| 2026-05-05 16:57 | 50.59987 | 6.28717 | 35834 ft | 445 kts | 281° |
| 2026-05-05 16:58 | 50.61609 | 6.19289 | 35835 ft | 446 kts | 281° |
| 2026-05-05 16:58 | 50.63203 | 6.09934 | 35852 ft | 445 kts | 281° |
| 2026-05-05 16:59 | 50.64810 | 6.00495 | 35872 ft | 445 kts | 281° |
| 2026-05-05 16:59 | 50.66403 | 5.91083 | 35870 ft | 444 kts | 281° |
| 2026-05-05 17:00 | 50.67985 | 5.81673 | 35865 ft | 444 kts | 281° |
| 2026-05-05 17:00 | 50.69559 | 5.72268 | 35864 ft | 443 kts | 281° |
| 2026-05-05 17:01 | 50.71125 | 5.62853 | 35864 ft | 444 kts | 281° |
| 2026-05-05 17:01 | 50.72690 | 5.53432 | 35881 ft | 443 kts | 281° |
| 2026-05-05 17:02 | 50.74246 | 5.44013 | 35881 ft | 443 kts | 281° |
| 2026-05-05 17:02 | 50.75775 | 5.34656 | 35883 ft | 442 kts | 281° |
| 2026-05-05 17:03 | 50.77305 | 5.25259 | 35884 ft | 441 kts | 281° |
| 2026-05-05 17:03 | 50.78822 | 5.15864 | 35889 ft | 440 kts | 281° |
| 2026-05-05 17:04 | 50.80344 | 5.06481 | 35900 ft | 441 kts | 284° |
| 2026-05-05 17:04 | 50.82839 | 4.97575 | 35897 ft | 445 kts | 294° |
| 2026-05-05 17:05 | 50.85607 | 4.88895 | 35891 ft | 444 kts | 294° |
| 2026-05-05 17:05 | 50.88375 | 4.80151 | 35889 ft | 444 kts | 293° |
| 2026-05-05 17:06 | 50.91128 | 4.71402 | 35883 ft | 444 kts | 293° |
| 2026-05-05 17:06 | 50.93871 | 4.62650 | 35901 ft | 444 kts | 294° |
| 2026-05-05 17:07 | 50.96615 | 4.53877 | 35897 ft | 444 kts | 293° |
| 2026-05-05 17:07 | 50.99348 | 4.45100 | 35896 ft | 444 kts | 293° |
| 2026-05-05 17:08 | 51.02073 | 4.36308 | 35889 ft | 443 kts | 293° |
| 2026-05-05 17:08 | 51.04797 | 4.27523 | 35886 ft | 443 kts | 293° |
| 2026-05-05 17:09 | 51.07515 | 4.18720 | 35883 ft | 443 kts | 293° |
| 2026-05-05 17:09 | 51.10214 | 4.09905 | 35880 ft | 443 kts | 293° |
| 2026-05-05 17:10 | 51.12890 | 4.01132 | 35879 ft | 443 kts | 293° |
| 2026-05-05 17:10 | 51.15602 | 3.92235 | 35878 ft | 444 kts | 293° |
| 2026-05-05 17:11 | 51.18273 | 3.83442 | 35881 ft | 443 kts | 293° |
| 2026-05-05 17:11 | 51.20960 | 3.74577 | 35890 ft | 443 kts | 293° |
| 2026-05-05 17:12 | 51.23496 | 3.65606 | 35886 ft | 441 kts | 285° |
| 2026-05-05 17:12 | 51.24893 | 3.56129 | 35886 ft | 439 kts | 279° |
| 2026-05-05 17:13 | 51.26146 | 3.46699 | 35886 ft | 439 kts | 279° |
| 2026-05-05 17:13 | 51.27391 | 3.37251 | 35895 ft | 438 kts | 279° |
| 2026-05-05 17:14 | 51.28625 | 3.27704 | 35910 ft | 438 kts | 278° |
| 2026-05-05 17:14 | 51.29844 | 3.18167 | 35919 ft | 438 kts | 278° |
| 2026-05-05 17:15 | 51.31054 | 3.08626 | 35925 ft | 437 kts | 278° |
| 2026-05-05 17:15 | 51.32257 | 2.99109 | 35929 ft | 437 kts | 278° |
| 2026-05-05 17:16 | 51.33303 | 2.90750 | 35840 ft | 437 kts | 278° |
| 2026-05-05 17:16 | 51.33892 | 2.85996 | 35676 ft | 435 kts | 277° |
| 2026-05-05 17:16 | 51.34479 | 2.81235 | 35710 ft | 436 kts | 278° |
| 2026-05-05 17:17 | 51.35058 | 2.76534 | 35101 ft | 439 kts | 278° |
| 2026-05-05 17:17 | 51.35651 | 2.71751 | 34579 ft | 436 kts | 278° |
| 2026-05-05 17:17 | 51.36242 | 2.67015 | 34072 ft | 433 kts | 277° |
| 2026-05-05 17:17 | 51.36826 | 2.62303 | 33503 ft | 430 kts | 277° |
| 2026-05-05 17:18 | 51.37401 | 2.57638 | 33003 ft | 425 kts | 277° |
| 2026-05-05 17:18 | 51.37970 | 2.53008 | 32274 ft | 426 kts | 277° |
| 2026-05-05 17:18 | 51.38543 | 2.48289 | 31107 ft | 437 kts | 277° |
| 2026-05-05 17:18 | 51.39116 | 2.43557 | 30330 ft | 428 kts | 277° |
| 2026-05-05 17:19 | 51.39681 | 2.38916 | 29429 ft | 421 kts | 278° |
| 2026-05-05 17:19 | 51.40234 | 2.34352 | 28497 ft | 414 kts | 278° |
| 2026-05-05 17:19 | 51.40774 | 2.29867 | 27577 ft | 407 kts | 278° |
| 2026-05-05 17:19 | 51.41302 | 2.25439 | 26696 ft | 401 kts | 278° |
| 2026-05-05 17:20 | 51.41827 | 2.21086 | 25852 ft | 395 kts | 278° |
| 2026-05-05 17:20 | 51.42347 | 2.16798 | 25026 ft | 389 kts | 279° |
| 2026-05-05 17:20 | 51.42866 | 2.12565 | 24235 ft | 384 kts | 280° |
| 2026-05-05 17:20 | 51.43377 | 2.08397 | 23448 ft | 379 kts | 280° |
| 2026-05-05 17:21 | 51.43880 | 2.04273 | 22530 ft | 375 kts | 280° |
| 2026-05-05 17:21 | 51.44374 | 2.00196 | 21672 ft | 370 kts | 280° |
| 2026-05-05 17:21 | 51.44856 | 1.96167 | 20806 ft | 366 kts | 280° |
| 2026-05-05 17:22 | 51.45800 | 1.88111 | 19595 ft | 373 kts | 280° |
| 2026-05-05 17:22 | 51.46275 | 1.84034 | 19150 ft | 372 kts | 280° |
| 2026-05-05 17:22 | 51.46748 | 1.79956 | 18697 ft | 371 kts | 281° |
| 2026-05-05 17:22 | 51.47219 | 1.75889 | 18248 ft | 370 kts | 281° |
| 2026-05-05 17:23 | 51.47684 | 1.71834 | 17767 ft | 368 kts | 280° |
| 2026-05-05 17:23 | 51.48144 | 1.67796 | 17320 ft | 367 kts | 281° |
| 2026-05-05 17:23 | 51.48541 | 1.63772 | 16874 ft | 364 kts | 274° |
| 2026-05-05 17:23 | 51.48403 | 1.59744 | 16441 ft | 362 kts | 259° |
| 2026-05-05 17:24 | 51.47677 | 1.55897 | 16018 ft | 359 kts | 249° |
| 2026-05-05 17:24 | 51.46813 | 1.52148 | 15601 ft | 357 kts | 249° |
| 2026-05-05 17:24 | 51.45955 | 1.48422 | 15174 ft | 355 kts | 249° |
| 2026-05-05 17:24 | 51.45100 | 1.44717 | 14751 ft | 354 kts | 249° |
| 2026-05-05 17:25 | 51.44241 | 1.41035 | 14335 ft | 352 kts | 247° |
| 2026-05-05 17:25 | 51.43906 | 1.39885 | 14202 ft | 351 kts | 242° |
| 2026-05-05 17:25 | 51.41331 | 1.35003 | 13922 ft | 346 kts | 217° |
| 2026-05-05 17:25 | 51.39389 | 1.32707 | 13939 ft | 348 kts | 216° |
| 2026-05-05 17:26 | 51.37440 | 1.30405 | 13945 ft | 348 kts | 216° |
| 2026-05-05 17:26 | 51.35495 | 1.28103 | 13942 ft | 348 kts | 216° |
| 2026-05-05 17:26 | 51.33554 | 1.25804 | 13942 ft | 348 kts | 216° |
| 2026-05-05 17:26 | 51.31609 | 1.23498 | 13934 ft | 350 kts | 215° |
| 2026-05-05 17:27 | 51.29650 | 1.21165 | 13941 ft | 350 kts | 218° |
| 2026-05-05 17:27 | 51.27980 | 1.18346 | 13938 ft | 350 kts | 236° |
| 2026-05-05 17:27 | 51.26735 | 1.14999 | 13941 ft | 352 kts | 240° |
| 2026-05-05 17:27 | 51.25516 | 1.11603 | 13941 ft | 352 kts | 240° |
| 2026-05-05 17:28 | 51.24302 | 1.08200 | 13938 ft | 352 kts | 240° |
| 2026-05-05 17:28 | 51.23090 | 1.04795 | 13938 ft | 351 kts | 240° |
| 2026-05-05 17:28 | 51.21884 | 1.01409 | 13706 ft | 351 kts | 240° |
| 2026-05-05 17:28 | 51.20681 | 0.98037 | 13436 ft | 347 kts | 240° |
| 2026-05-05 17:29 | 51.19508 | 0.94757 | 13163 ft | 331 kts | 240° |
| 2026-05-05 17:29 | 51.18766 | 0.92686 | 13018 ft | 319 kts | 240° |
| 2026-05-05 17:29 | 51.17679 | 0.89661 | 12769 ft | 311 kts | 240° |
| 2026-05-05 17:29 | 51.16260 | 0.85716 | 12449 ft | 309 kts | 240° |
| 2026-05-05 17:30 | 51.15194 | 0.82755 | 12202 ft | 307 kts | 240° |
| 2026-05-05 17:30 | 51.14134 | 0.79819 | 11954 ft | 305 kts | 241° |
| 2026-05-05 17:30 | 51.13423 | 0.77849 | 11793 ft | 303 kts | 240° |
| 2026-05-05 17:30 | 51.12372 | 0.74950 | 11550 ft | 301 kts | 241° |
| 2026-05-05 17:31 | 51.11328 | 0.72069 | 11311 ft | 300 kts | 241° |
| 2026-05-05 17:31 | 51.10287 | 0.69197 | 11074 ft | 298 kts | 241° |
| 2026-05-05 17:31 | 51.09274 | 0.66406 | 10835 ft | 293 kts | 241° |
| 2026-05-05 17:31 | 51.08263 | 0.63628 | 10600 ft | 287 kts | 241° |
| 2026-05-05 17:32 | 51.07270 | 0.60900 | 10360 ft | 282 kts | 242° |
| 2026-05-05 17:32 | 51.06293 | 0.58222 | 10158 ft | 276 kts | 242° |
| 2026-05-05 17:32 | 51.05343 | 0.55624 | 9972 ft | 264 kts | 241° |
| 2026-05-05 17:32 | 51.04432 | 0.53136 | 9840 ft | 258 kts | 241° |
| 2026-05-05 17:33 | 51.03532 | 0.50676 | 9705 ft | 257 kts | 241° |
| 2026-05-05 17:33 | 51.02634 | 0.48219 | 9568 ft | 256 kts | 241° |
| 2026-05-05 17:33 | 51.01741 | 0.45769 | 9422 ft | 256 kts | 243° |
| 2026-05-05 17:33 | 51.00849 | 0.43319 | 9128 ft | 255 kts | 242° |
| 2026-05-05 17:34 | 50.99970 | 0.40916 | 8830 ft | 255 kts | 243° |
| 2026-05-05 17:34 | 50.99080 | 0.38495 | 8541 ft | 253 kts | 241° |
| 2026-05-05 17:34 | 50.98188 | 0.36074 | 8138 ft | 255 kts | 242° |
| 2026-05-05 17:34 | 50.97305 | 0.33678 | 8035 ft | 249 kts | 242° |
| 2026-05-05 17:35 | 50.96426 | 0.31294 | 8039 ft | 251 kts | 242° |
| 2026-05-05 17:35 | 50.95767 | 0.28766 | 8026 ft | 246 kts | 265° |
| 2026-05-05 17:35 | 50.95917 | 0.26116 | 8028 ft | 242 kts | 287° |
| 2026-05-05 17:35 | 50.96413 | 0.23563 | 8016 ft | 242 kts | 291° |
| 2026-05-05 17:36 | 50.96954 | 0.21036 | 8019 ft | 242 kts | 291° |
| 2026-05-05 17:36 | 50.97503 | 0.18509 | 8020 ft | 242 kts | 291° |
| 2026-05-05 17:36 | 50.98049 | 0.15978 | 8018 ft | 242 kts | 291° |
| 2026-05-05 17:36 | 50.98457 | 0.13390 | 8007 ft | 244 kts | 279° |
| 2026-05-05 17:37 | 50.98607 | 0.10707 | 8004 ft | 244 kts | 277° |
| 2026-05-05 17:37 | 50.98723 | 0.08011 | 7985 ft | 245 kts | 277° |
| 2026-05-05 17:37 | 50.98843 | 0.05344 | 7700 ft | 244 kts | 277° |
| 2026-05-05 17:37 | 50.98952 | 0.02665 | 7366 ft | 242 kts | 276° |
| 2026-05-05 17:38 | 50.99056 | 0.00010 | 7010 ft | 241 kts | 276° |
| 2026-05-05 17:38 | 50.99161 | -0.02635 | 6646 ft | 239 kts | 276° |
| 2026-05-05 17:38 | 50.99273 | -0.05265 | 6319 ft | 238 kts | 276° |
| 2026-05-05 17:38 | 50.99382 | -0.07878 | 5965 ft | 237 kts | 276° |
| 2026-05-05 17:39 | 50.99491 | -0.10483 | 5619 ft | 236 kts | 276° |
| 2026-05-05 17:39 | 50.99599 | -0.13077 | 5257 ft | 235 kts | 276° |
| 2026-05-05 17:39 | 50.99708 | -0.15662 | 4900 ft | 234 kts | 276° |
| 2026-05-05 17:39 | 50.99817 | -0.18201 | 4549 ft | 234 kts | 276° |
| 2026-05-05 17:40 | 50.99927 | -0.20775 | 4171 ft | 233 kts | 276° |
| 2026-05-05 17:40 | 51.00039 | -0.23338 | 3862 ft | 230 kts | 276° |
| 2026-05-05 17:40 | 51.00148 | -0.25806 | 3733 ft | 219 kts | 276° |
| 2026-05-05 17:40 | 51.00248 | -0.28156 | 3603 ft | 208 kts | 276° |
| 2026-05-05 17:41 | 51.00344 | -0.30408 | 3471 ft | 200 kts | 276° |
| 2026-05-05 17:41 | 51.00434 | -0.32571 | 3328 ft | 193 kts | 276° |
| 2026-05-05 17:41 | 51.00521 | -0.34690 | 3119 ft | 192 kts | 276° |
| 2026-05-05 17:41 | 51.00613 | -0.36809 | 3013 ft | 193 kts | 276° |
| 2026-05-05 17:42 | 51.00709 | -0.38923 | 3004 ft | 192 kts | 276° |
| 2026-05-05 17:42 | 51.00890 | -0.41019 | 2993 ft | 190 kts | 296° |
| 2026-05-05 17:42 | 51.01703 | -0.42567 | 3003 ft | 184 kts | 331° |
| 2026-05-05 17:42 | 51.02846 | -0.43464 | 3000 ft | 183 kts | 339° |
| 2026-05-05 17:43 | 51.04035 | -0.44213 | 3010 ft | 184 kts | 341° |
| 2026-05-05 17:43 | 51.05228 | -0.44940 | 2995 ft | 182 kts | 341° |
| 2026-05-05 17:43 | 51.06413 | -0.45659 | 2719 ft | 184 kts | 341° |
| 2026-05-05 17:43 | 51.07611 | -0.46368 | 2460 ft | 183 kts | 347° |
| 2026-05-05 17:44 | 51.08859 | -0.46521 | 2199 ft | 180 kts | 10° |
| 2026-05-05 17:44 | 51.10023 | -0.45899 | 2044 ft | 177 kts | 32° |
| 2026-05-05 17:44 | 51.10948 | -0.44617 | 1997 ft | 177 kts | 53° |
| 2026-05-05 17:44 | 51.11491 | -0.42860 | 2000 ft | 179 kts | 76° |
| 2026-05-05 17:45 | 51.11764 | -0.40924 | 2003 ft | 180 kts | 76° |
| 2026-05-05 17:45 | 51.12037 | -0.38979 | 2009 ft | 180 kts | 76° |
| 2026-05-05 17:45 | 51.12310 | -0.37035 | 2005 ft | 179 kts | 76° |
| 2026-05-05 17:45 | 51.12580 | -0.35100 | 1958 ft | 176 kts | 76° |
| 2026-05-05 17:46 | 51.12835 | -0.33276 | 1805 ft | 163 kts | 77° |
| 2026-05-05 17:46 | 51.13067 | -0.31610 | 1659 ft | 151 kts | 77° |
| 2026-05-05 17:46 | 51.13294 | -0.29987 | 1433 ft | 145 kts | 77° |
| 2026-05-05 17:46 | 51.13506 | -0.28459 | 1237 ft | 142 kts | 76° |
| 2026-05-05 17:47 | 51.13720 | -0.26923 | 1031 ft | 141 kts | 76° |
| 2026-05-05 17:47 | 51.13933 | -0.25390 | 842 ft | 142 kts | 77° |
| 2026-05-05 17:47 | 51.14151 | -0.23855 | 668 ft | 142 kts | 77° |
| 2026-05-05 17:47 | 51.14366 | -0.22325 | 470 ft | 141 kts | 78° |
| 2026-05-05 17:48 | 51.14572 | -0.20805 | 258 ft | 139 kts | 78° |
| 2026-05-05 17:48 | 51.14767 | -0.19388 | 209 ft | 116 kts | 78° |
| 2026-05-05 17:48 | 51.14901 | -0.18408 | 217 ft | 66 kts | 77° |
| 2026-05-05 17:48 | 51.14990 | -0.17949 | 214 ft | 29 kts | 60° |
| 2026-05-05 17:49 | 51.15083 | -0.17769 | 215 ft | 14 kts | 25° |
| 2026-05-05 17:49 | 51.15103 | -0.17762 | 211 ft | 0 kts | 7° |
| 2026-05-05 17:49 | 51.15123 | -0.17763 | 206 ft | 10 kts | 355° |
| 2026-05-05 17:49 | 51.15195 | -0.17778 | 205 ft | 10 kts | 353° |
| 2026-05-05 17:50 | 51.15252 | -0.17751 | 207 ft | 8 kts | 51° |
| 2026-05-05 17:50 | 51.15272 | -0.17655 | 205 ft | 10 kts | 77° |
| 2026-05-05 17:50 | 51.15292 | -0.17536 | 213 ft | 12 kts | 78° |
| 2026-05-05 17:50 | 51.15312 | -0.17398 | 213 ft | 14 kts | 54° |
| 2026-05-05 17:51 | 51.15405 | -0.17392 | 205 ft | 14 kts | 348° |
| 2026-05-05 17:51 | 51.15504 | -0.17427 | 205 ft | 14 kts | 347° |
| 2026-05-05 17:51 | 51.15533 | -0.17547 | 205 ft | 12 kts | 259° |
| 2026-05-05 17:51 | 51.15547 | -0.17612 | 208 ft | 2 kts | 349° |
| 2026-05-05 17:52 | 51.15575 | -0.17621 | 205 ft | 3 kts | 347° |
| 2026-05-05 17:52 | 51.15590 | -0.17626 | 205 ft | 0 kts | 347° |